EGKK Airport Information

Runway Information
Runway 08L Length 8415 ft width 148 ft
Elevation 195 ft Threshold 1053 ft Heading 78
Runway 26R Length 8415 ft Width 148 ft
Elevation 195 ft Threshold 1366 ft Heading 258
Runway 08R Length 10364 ft width 148 ft
Elevation 196 ft Threshold 1288 ft Heading 78
Runway 26L Length 10364 ft Width 148 ft
Elevation 196 ft Threshold 878 ft Heading 258
Airport Frequencies
Type APP Name APP Frequency 126.825 MHZ
Type ATIS Name ATIS Frequency 136.525 MHZ
Type CLD Name CLNC DEL Frequency 121.95 MHZ
Type GND Name GND Frequency 121.8 MHZ
Type TWR Name TWR Frequency 124.225 MHZ
Airport Navaids
Type NDB Name Gatwick Frequency 338 KHZ
Type NDB Name Gatwick Frequency 365 KHZ
Airport Weather Information & NOTAM
ADDS - METARS form results

(0815 UTC 22 May 2018)
 
METAR text: EGKK 220750Z 02011KT CAVOK 16/09 Q1015
Conditions at: EGKK (LONDON/GATWICK A, GB) observed 0750 UTC 22 May 2018
Temperature: 16.0°C (61°F)
Dewpoint: 9.0°C (48°F) [RH = 63%]
Pressure (altimeter): 29.97 inches Hg (1015.0 mb)
Winds: from the NNE (20 degrees) at 13 MPH (11 knots; 5.7 m/s)
Visibility: 6 or more miles (10+ km)
Ceiling: ceiling and visibility are OK
Clouds: unknown
Weather: no significant weather observed at this time

METAR text: EGKK 220720Z 01008KT 340V040 CAVOK 16/10 Q1015
Conditions at: EGKK (LONDON/GATWICK A, GB) observed 0720 UTC 22 May 2018
Temperature: 16.0°C (61°F)
Dewpoint: 10.0°C (50°F) [RH = 68%]
Pressure (altimeter): 29.97 inches Hg (1015.0 mb)
Winds: from the N (10 degrees) at 9 MPH (8 knots; 4.2 m/s)
Visibility: 6 or more miles (10+ km)
Ceiling: ceiling and visibility are OK
Clouds: unknown
Weather: no significant weather observed at this time